Time,TemperatureF,DewpointF,PressureIn,WindDirection,WindDirectionDegrees,WindSpeedMPH,WindSpeedGustMPH,Humidity,HourlyPrecipIn,Conditions,Clouds,dailyrainin,SolarRadiationWatts/m^2,SoftwareType,DateUTC
2013-02-28 00:01:00,51.0,38.0,-100.00,West,260,10.0,17.0,62,0.00,,,0.00,0.000000,,2013-02-28 08:01:00,
2013-02-28 00:11:00,51.0,38.0,-100.00,West,260,10.0,17.0,62,0.00,,,0.00,0.000000,,2013-02-28 08:11:00,
2013-02-28 00:21:00,51.0,38.0,-100.00,West,260,10.0,17.0,62,0.00,,,0.00,0.000000,,2013-02-28 08:21:00,
2013-02-28 00:53:00,50.0,39.0,-100.00,West,265,10.0,14.0,66,0.00,,,-99.99,0.000000,,2013-02-28 08:53:00,
2013-02-28 01:03:00,50.0,39.0,-100.00,West,265,10.0,14.0,66,0.00,,,-99.99,0.000000,,2013-02-28 09:03:00,
2013-02-28 01:11:00,50.0,39.0,-100.00,West,265,10.0,14.0,66,0.00,,,-99.99,0.000000,,2013-02-28 09:11:00,
2013-02-28 01:21:00,50.0,39.0,-100.00,West,265,10.0,14.0,66,0.00,,,-99.99,0.000000,,2013-02-28 09:21:00,
2013-02-28 01:52:00,49.0,40.0,-100.00,West,260,9.0,14.0,72,0.00,,,0.00,0.000000,,2013-02-28 09:52:00,
2013-02-28 02:01:00,49.0,40.0,-100.00,West,260,9.0,14.0,72,0.00,,,0.00,0.000000,,2013-02-28 10:01:00,
2013-02-28 02:11:00,49.0,40.0,-100.00,West,260,9.0,14.0,72,0.00,,,0.00,0.000000,,2013-02-28 10:11:00,
2013-02-28 02:21:00,49.0,40.0,-100.00,West,260,9.0,14.0,72,0.00,,,0.00,0.000000,,2013-02-28 10:21:00,
2013-02-28 02:52:00,52.0,41.0,-100.00,West,278,12.0,16.0,67,0.00,,,-99.99,0.000000,,2013-02-28 10:52:00,
2013-02-28 03:01:00,52.0,41.0,-100.00,West,278,12.0,16.0,67,0.00,,,-99.99,0.000000,,2013-02-28 11:01:00,
2013-02-28 03:11:00,52.0,41.0,-100.00,West,278,12.0,16.0,67,0.00,,,-99.99,0.000000,,2013-02-28 11:11:00,
2013-02-28 03:21:00,52.0,41.0,-100.00,West,278,12.0,16.0,67,0.00,,,-99.99,0.000000,,2013-02-28 11:21:00,
2013-02-28 03:52:00,49.0,37.0,-100.00,WSW,255,10.0,16.0,62,0.00,,,0.00,0.000000,,2013-02-28 11:52:00,
2013-02-28 04:01:00,49.0,37.0,-100.00,WSW,255,10.0,16.0,62,0.00,,,0.00,0.000000,,2013-02-28 12:01:00,
2013-02-28 04:11:00,49.0,37.0,-100.00,WSW,255,10.0,16.0,62,0.00,,,0.00,0.000000,,2013-02-28 12:11:00,
2013-02-28 04:21:00,49.0,37.0,-100.00,WSW,255,10.0,16.0,62,0.00,,,0.00,0.000000,,2013-02-28 12:21:00,
2013-02-28 04:52:00,49.0,39.0,-100.00,WSW,258,10.0,13.0,69,0.00,,,0.00,0.000000,,2013-02-28 12:52:00,
2013-02-28 05:01:00,49.0,39.0,-100.00,WSW,258,10.0,13.0,69,0.00,,,0.00,0.000000,,2013-02-28 13:01:00,
2013-02-28 05:11:00,49.0,39.0,-100.00,WSW,258,10.0,13.0,69,0.00,,,0.00,0.000000,,2013-02-28 13:11:00,
2013-02-28 05:21:00,49.0,39.0,-100.00,WSW,258,10.0,13.0,69,0.00,,,0.00,0.000000,,2013-02-28 13:21:00,
2013-02-28 05:52:00,49.0,39.0,-100.00,WSW,258,9.0,14.0,68,0.00,,,0.00,0.000000,,2013-02-28 13:52:00,
2013-02-28 06:01:00,49.0,39.0,-100.00,WSW,258,9.0,14.0,68,0.00,,,0.00,0.000000,,2013-02-28 14:01:00,
2013-02-28 06:11:00,49.0,39.0,-100.00,WSW,258,9.0,14.0,68,0.00,,,0.00,0.000000,,2013-02-28 14:11:00,
2013-02-28 06:21:00,49.0,39.0,-100.00,WSW,258,9.0,14.0,68,0.00,,,0.00,0.000000,,2013-02-28 14:21:00,
2013-02-28 06:52:00,49.0,43.0,-100.00,West,264,11.0,17.0,80,0.00,,,0.00,0.000000,,2013-02-28 14:52:00,
2013-02-28 07:02:00,49.0,43.0,-100.00,West,264,11.0,17.0,80,0.00,,,0.00,0.000000,,2013-02-28 15:02:00,
2013-02-28 07:11:00,49.0,43.0,-100.00,West,264,11.0,17.0,80,0.00,,,0.00,0.000000,,2013-02-28 15:11:00,
2013-02-28 07:21:00,49.0,43.0,-100.00,West,264,11.0,17.0,80,0.00,,,0.00,0.000000,,2013-02-28 15:21:00,
2013-02-28 07:52:00,51.0,44.0,-100.00,West,261,11.0,17.0,77,0.00,,,0.00,38.000000,,2013-02-28 15:52:00,
2013-02-28 08:01:00,51.0,44.0,-100.00,West,261,11.0,17.0,77,0.00,,,0.00,38.000000,,2013-02-28 16:01:00,
2013-02-28 08:11:00,51.0,44.0,-100.00,West,261,11.0,17.0,77,0.00,,,0.00,38.000000,,2013-02-28 16:11:00,
2013-02-28 08:21:00,51.0,44.0,-100.00,West,261,11.0,17.0,77,0.00,,,0.00,38.000000,,2013-02-28 16:21:00,
2013-02-28 08:52:00,51.0,44.0,-100.00,West,259,9.0,15.0,78,0.00,,,0.00,124.000000,,2013-02-28 16:52:00,
2013-02-28 09:01:00,51.0,44.0,-100.00,West,259,9.0,15.0,78,0.00,,,0.00,124.000000,,2013-02-28 17:01:00,
2013-02-28 09:11:00,51.0,44.0,-100.00,West,259,9.0,15.0,78,0.00,,,0.00,124.000000,,2013-02-28 17:11:00,
2013-02-28 09:21:00,51.0,44.0,-100.00,West,259,9.0,15.0,78,0.00,,,0.00,124.000000,,2013-02-28 17:21:00,
2013-02-28 09:52:00,53.0,45.0,-100.00,West,267,11.0,15.0,73,0.00,,,0.00,317.000000,,2013-02-28 17:52:00,
2013-02-28 10:02:00,53.0,45.0,-100.00,West,267,11.0,15.0,73,0.00,,,0.00,317.000000,,2013-02-28 18:02:00,
2013-02-28 10:11:00,53.0,45.0,-100.00,West,267,11.0,15.0,73,0.00,,,0.00,317.000000,,2013-02-28 18:11:00,
2013-02-28 10:21:00,53.0,45.0,-100.00,West,267,11.0,15.0,73,0.00,,,0.00,317.000000,,2013-02-28 18:21:00,
2013-02-28 10:52:00,56.0,47.0,-100.00,West,273,11.0,17.0,73,0.00,,,0.00,513.000000,,2013-02-28 18:52:00,
2013-02-28 11:01:00,56.0,47.0,-100.00,West,273,11.0,17.0,73,0.00,,,0.00,513.000000,,2013-02-28 19:01:00,
2013-02-28 11:11:00,56.0,47.0,-100.00,West,273,11.0,17.0,73,0.00,,,0.00,513.000000,,2013-02-28 19:11:00,
2013-02-28 11:21:00,56.0,47.0,-100.00,West,273,11.0,17.0,73,0.00,,,0.00,513.000000,,2013-02-28 19:21:00,
2013-02-28 11:52:00,60.0,49.0,-100.00,West,270,11.0,17.0,68,0.00,,,0.00,627.000000,,2013-02-28 19:52:00,
2013-02-28 12:01:00,60.0,49.0,-100.00,West,270,11.0,17.0,68,0.00,,,0.00,627.000000,,2013-02-28 20:01:00,
2013-02-28 12:11:00,60.0,49.0,-100.00,West,270,11.0,17.0,68,0.00,,,0.00,627.000000,,2013-02-28 20:11:00,
2013-02-28 12:21:00,60.0,49.0,-100.00,West,270,11.0,17.0,68,0.00,,,0.00,627.000000,,2013-02-28 20:21:00,
2013-02-28 12:52:00,65.0,50.0,-100.00,West,265,8.0,14.0,58,0.00,,,0.00,687.000000,,2013-02-28 20:52:00,
2013-02-28 13:01:00,65.0,50.0,-100.00,West,265,8.0,14.0,58,0.00,,,0.00,687.000000,,2013-02-28 21:01:00,
2013-02-28 13:11:00,65.0,50.0,-100.00,West,265,8.0,14.0,58,0.00,,,0.00,687.000000,,2013-02-28 21:11:00,
2013-02-28 13:22:00,65.0,50.0,-100.00,West,265,8.0,14.0,58,0.00,,,0.00,687.000000,,2013-02-28 21:22:00,
2013-02-28 13:52:00,67.0,49.0,-100.00,WNW,290,10.0,16.0,53,0.00,,,0.00,694.000000,,2013-02-28 21:52:00,
2013-02-28 14:01:00,67.0,49.0,-100.00,WNW,290,10.0,16.0,53,0.00,,,0.00,694.000000,,2013-02-28 22:01:00,
2013-02-28 14:11:00,67.0,49.0,-100.00,WNW,290,10.0,16.0,53,0.00,,,0.00,694.000000,,2013-02-28 22:11:00,
2013-02-28 14:21:00,67.0,49.0,-100.00,WNW,290,10.0,16.0,53,0.00,,,0.00,694.000000,,2013-02-28 22:21:00,
2013-02-28 14:52:00,65.0,49.0,-100.00,WNW,290,12.0,20.0,56,0.00,,,0.00,587.000000,,2013-02-28 22:52:00,
2013-02-28 15:01:00,65.0,49.0,-100.00,WNW,290,12.0,20.0,56,0.00,,,0.00,587.000000,,2013-02-28 23:01:00,
2013-02-28 15:11:00,65.0,49.0,-100.00,WNW,290,12.0,20.0,56,0.00,,,0.00,587.000000,,2013-02-28 23:11:00,
2013-02-28 15:21:00,65.0,49.0,-100.00,WNW,290,12.0,20.0,56,0.00,,,0.00,587.000000,,2013-02-28 23:21:00,
2013-02-28 15:53:00,62.0,47.0,-100.00,West,280,11.0,17.0,59,0.00,,,0.00,493.000000,,2013-02-28 23:53:00,
2013-02-28 16:01:00,62.0,47.0,-100.00,West,280,11.0,17.0,59,0.00,,,0.00,493.000000,,2013-03-01 00:01:00,
2013-02-28 16:11:00,62.0,47.0,-100.00,West,280,11.0,17.0,59,0.00,,,0.00,493.000000,,2013-03-01 00:11:00,
2013-02-28 16:22:00,62.0,47.0,-100.00,West,280,11.0,17.0,59,0.00,,,0.00,493.000000,,2013-03-01 00:22:00,
2013-02-28 16:52:00,61.0,48.0,-100.00,WNW,295,11.0,16.0,62,0.00,,,0.00,362.000000,,2013-03-01 00:52:00,
2013-02-28 17:01:00,61.0,48.0,-100.00,WNW,295,11.0,16.0,62,0.00,,,0.00,362.000000,,2013-03-01 01:01:00,
2013-02-28 17:11:00,61.0,48.0,-100.00,WNW,295,11.0,16.0,62,0.00,,,0.00,362.000000,,2013-03-01 01:11:00,
2013-02-28 17:21:00,61.0,48.0,-100.00,WNW,295,11.0,16.0,62,0.00,,,0.00,362.000000,,2013-03-01 01:21:00,
2013-02-28 17:52:00,58.0,48.0,-100.00,West,269,8.0,15.0,70,0.00,,,0.00,157.000000,,2013-03-01 01:52:00,
2013-02-28 18:01:00,58.0,48.0,-100.00,West,269,8.0,15.0,70,0.00,,,0.00,157.000000,,2013-03-01 02:01:00,
2013-02-28 18:11:00,58.0,48.0,-100.00,West,269,8.0,15.0,70,0.00,,,0.00,157.000000,,2013-03-01 02:11:00,
2013-02-28 18:21:00,58.0,48.0,-100.00,West,269,8.0,15.0,70,0.00,,,0.00,157.000000,,2013-03-01 02:21:00,
2013-02-28 18:52:00,55.0,49.0,-100.00,West,265,10.0,13.0,80,0.00,,,0.00,13.000000,,2013-03-01 02:52:00,
2013-02-28 19:01:00,55.0,49.0,-100.00,West,265,10.0,13.0,80,0.00,,,0.00,13.000000,,2013-03-01 03:01:00,
2013-02-28 19:11:00,55.0,49.0,-100.00,West,265,10.0,13.0,80,0.00,,,0.00,13.000000,,2013-03-01 03:11:00,
2013-02-28 19:21:00,55.0,49.0,-100.00,West,265,10.0,13.0,80,0.00,,,0.00,13.000000,,2013-03-01 03:21:00,
2013-02-28 19:52:00,55.0,50.0,-100.00,West,261,9.0,12.0,83,0.00,,,0.00,0.000000,,2013-03-01 03:52:00,
2013-02-28 20:01:00,55.0,50.0,-100.00,West,261,9.0,12.0,83,0.00,,,0.00,0.000000,,2013-03-01 04:01:00,
2013-02-28 20:11:00,55.0,50.0,-100.00,West,261,9.0,12.0,83,0.00,,,0.00,0.000000,,2013-03-01 04:11:00,
2013-02-28 20:21:00,55.0,50.0,-100.00,West,261,9.0,12.0,83,0.00,,,0.00,0.000000,,2013-03-01 04:21:00,
2013-02-28 20:52:00,55.0,50.0,-100.00,WSW,256,10.0,14.0,83,0.00,,,0.00,0.000000,,2013-03-01 04:52:00,
2013-02-28 21:02:00,55.0,50.0,-100.00,WSW,256,10.0,14.0,83,0.00,,,0.00,0.000000,,2013-03-01 05:02:00,
2013-02-28 21:11:00,55.0,50.0,-100.00,WSW,256,10.0,14.0,83,0.00,,,0.00,0.000000,,2013-03-01 05:11:00,
2013-02-28 21:22:00,55.0,50.0,-100.00,WSW,256,10.0,14.0,83,0.00,,,0.00,0.000000,,2013-03-01 05:22:00,
2013-02-28 21:52:00,55.0,48.0,-100.00,WSW,255,9.0,12.0,78,0.00,,,0.00,0.000000,,2013-03-01 05:52:00,
2013-02-28 22:02:00,55.0,48.0,-100.00,WSW,255,9.0,12.0,78,0.00,,,0.00,0.000000,,2013-03-01 06:02:00,
2013-02-28 22:11:00,55.0,48.0,-100.00,WSW,255,9.0,12.0,78,0.00,,,0.00,0.000000,,2013-03-01 06:11:00,
2013-02-28 22:21:00,55.0,48.0,-100.00,WSW,255,9.0,12.0,78,0.00,,,0.00,0.000000,,2013-03-01 06:21:00,
2013-02-28 22:52:00,56.0,49.0,-100.00,WSW,256,7.0,11.0,78,0.00,,,0.00,0.000000,,2013-03-01 06:52:00,
2013-02-28 23:01:00,56.0,49.0,-100.00,WSW,256,7.0,11.0,78,0.00,,,0.00,0.000000,,2013-03-01 07:01:00,
2013-02-28 23:11:00,56.0,49.0,-100.00,WSW,256,7.0,11.0,78,0.00,,,0.00,0.000000,,2013-03-01 07:11:00,
2013-02-28 23:21:00,56.0,49.0,-100.00,WSW,256,7.0,11.0,78,0.00,,,0.00,0.000000,,2013-03-01 07:21:00,
2013-02-28 23:52:00,54.0,47.0,-100.00,West,271,4.0,8.0,78,0.00,,,0.00,0.000000,,2013-03-01 07:52:00,